Ana Sayfa
METAR-TAF:

METAR-TAF

Havaalanları :

Yaş, Romanya

Enlem: 47-10N, Boylam: 027-38E, yükseklik: 102 m

Güncel hava durumu gözlemi

Rapor saat 02:30 UTC de 30 dakika önce yapıldı.
Rüzgar batı/güneybatıdan 5 kt
Sıcaklık 0°C
Nem 86%
Basınç 1006 hPa
Görüş mesafesi 10 km veya daha fazla
1500 m altında bulut yok ve kümülonimbus yok

METAR: LRIA 280230Z 25005KT CAVOK 00/M02 Q1006 R14/29//95

Saat: 05:00 (03:00 UTC)

Tahmin

Rapor saat 02:00 UTC de 1 saat ve 0 dakika önce yapıldı.
Ayın 28'si saat 03 UTC'den ayın 28'si saat 12 UTC'ye kadar geçerli Tahmin
Rüzgar değişken yönden 4 kt
Görüş mesafesi 10 km veya daha fazla
1500 m altında bulut yok ve kümülonimbus yok
Dönüşüyor
ayın 28'si saat 07 UTC'den ayın 28'si saat 09 UTC'ye kadar
Rüzgar güneydan 10 kt

TAF: LRIA 280200Z 2803/2812 VRB04KT CAVOK BECMG 2807/2809 17010KT

4.000'den fazla havaalanı için hava durumu gözlemleri ve tahminleri (METAR ve TAF raporları).

Kullanılabilir istasyonlar harita üzerinde sarı ve kırmızı noktalarla gösterilir.

İstasyonun adını görmek için fareyi noktanın üzerinde gezdirin.

Sonrasında hava gözlem ve tahminlerini görmek için tıklayın.

Haritayı değiştirmek için: yaklaştırmak için siyah artı işaretli yeşil düğmeye ve uzaklaştırmak için de eksi işaretli düğmeye hızla tıklayın; bitişik haritalar için yeşil okları kullanın.


METAR-TAF: